sensor_id;sensor_type;location;lat;lon;timestamp;temperature;humidity
29713;DHT22;16623;53.632;10.016;2023-11-19T00:01:49;5.70;99.90
29713;DHT22;16623;53.632;10.016;2023-11-19T00:04:14;5.60;99.90
29713;DHT22;16623;53.632;10.016;2023-11-19T00:06:40;5.70;99.90
29713;DHT22;16623;53.632;10.016;2023-11-19T00:09:06;5.70;99.90
29713;DHT22;16623;53.632;10.016;2023-11-19T00:11:33;5.70;99.90
29713;DHT22;16623;53.632;10.016;2023-11-19T00:13:58;5.70;99.90
29713;DHT22;16623;53.632;10.016;2023-11-19T00:16:24;5.70;99.90
29713;DHT22;16623;53.632;10.016;2023-11-19T00:18:50;5.70;99.90
29713;DHT22;16623;53.632;10.016;2023-11-19T00:21:15;5.70;99.90
29713;DHT22;16623;53.632;10.016;2023-11-19T00:23:41;5.70;99.90
29713;DHT22;16623;53.632;10.016;2023-11-19T00:26:07;5.80;99.90
29713;DHT22;16623;53.632;10.016;2023-11-19T00:28:33;5.70;99.90
29713;DHT22;16623;53.632;10.016;2023-11-19T00:30:59;5.70;99.90
29713;DHT22;16623;53.632;10.016;2023-11-19T00:33:25;5.70;99.90
29713;DHT22;16623;53.632;10.016;2023-11-19T00:35:50;5.70;99.90
29713;DHT22;16623;53.632;10.016;2023-11-19T00:38:16;5.70;99.90
29713;DHT22;16623;53.632;10.016;2023-11-19T00:40:42;5.70;99.90
29713;DHT22;16623;53.632;10.016;2023-11-19T00:43:07;5.70;99.90
29713;DHT22;16623;53.632;10.016;2023-11-19T00:45:33;5.70;99.90
29713;DHT22;16623;53.632;10.016;2023-11-19T00:47:59;5.70;99.90
29713;DHT22;16623;53.632;10.016;2023-11-19T00:50:25;5.80;99.90
29713;DHT22;16623;53.632;10.016;2023-11-19T00:52:50;5.80;99.90
29713;DHT22;16623;53.632;10.016;2023-11-19T00:55:16;5.80;99.90
29713;DHT22;16623;53.632;10.016;2023-11-19T00:57:43;5.80;99.90
29713;DHT22;16623;53.632;10.016;2023-11-19T01:00:09;5.80;99.90
29713;DHT22;16623;53.632;10.016;2023-11-19T01:02:45;5.80;99.90
29713;DHT22;16623;53.632;10.016;2023-11-19T01:05:11;5.70;99.90
29713;DHT22;16623;53.632;10.016;2023-11-19T01:07:39;5.70;99.90
29713;DHT22;16623;53.632;10.016;2023-11-19T01:10:05;5.70;99.90
29713;DHT22;16623;53.632;10.016;2023-11-19T01:12:32;5.70;99.90
29713;DHT22;16623;53.632;10.016;2023-11-19T01:14:58;5.80;99.90
29713;DHT22;16623;53.632;10.016;2023-11-19T01:17:23;5.80;99.90
29713;DHT22;16623;53.632;10.016;2023-11-19T01:19:49;5.80;99.90
29713;DHT22;16623;53.632;10.016;2023-11-19T01:22:15;5.80;99.90
29713;DHT22;16623;53.632;10.016;2023-11-19T01:24:44;5.80;99.90
29713;DHT22;16623;53.632;10.016;2023-11-19T01:27:09;5.80;99.90
29713;DHT22;16623;53.632;10.016;2023-11-19T01:29:35;5.80;99.90
29713;DHT22;16623;53.632;10.016;2023-11-19T01:32:01;5.80;99.90
29713;DHT22;16623;53.632;10.016;2023-11-19T01:34:26;5.80;99.90
29713;DHT22;16623;53.632;10.016;2023-11-19T01:36:52;5.80;99.90
29713;DHT22;16623;53.632;10.016;2023-11-19T01:39:18;5.90;99.90
29713;DHT22;16623;53.632;10.016;2023-11-19T01:41:45;5.90;99.90
29713;DHT22;16623;53.632;10.016;2023-11-19T01:44:11;5.90;99.90
29713;DHT22;16623;53.632;10.016;2023-11-19T01:46:39;5.80;99.90
29713;DHT22;16623;53.632;10.016;2023-11-19T01:49:06;5.90;99.90
29713;DHT22;16623;53.632;10.016;2023-11-19T01:51:32;5.90;99.90
29713;DHT22;16623;53.632;10.016;2023-11-19T01:53:58;5.90;99.90
29713;DHT22;16623;53.632;10.016;2023-11-19T01:56:25;5.90;99.90
29713;DHT22;16623;53.632;10.016;2023-11-19T01:58:52;5.90;99.90
29713;DHT22;16623;53.632;10.016;2023-11-19T02:01:19;5.90;99.90
29713;DHT22;16623;53.632;10.016;2023-11-19T02:03:45;6.00;99.90
29713;DHT22;16623;53.632;10.016;2023-11-19T02:06:12;6.00;99.90
29713;DHT22;16623;53.632;10.016;2023-11-19T02:08:39;6.00;99.90
29713;DHT22;16623;53.632;10.016;2023-11-19T02:11:05;5.90;99.90
29713;DHT22;16623;53.632;10.016;2023-11-19T02:13:32;6.00;99.90
29713;DHT22;16623;53.632;10.016;2023-11-19T02:15:57;5.90;99.90
29713;DHT22;16623;53.632;10.016;2023-11-19T02:18:26;6.00;99.90
29713;DHT22;16623;53.632;10.016;2023-11-19T02:20:55;6.00;99.90
29713;DHT22;16623;53.632;10.016;2023-11-19T02:23:21;6.00;99.90
29713;DHT22;16623;53.632;10.016;2023-11-19T02:28:20;6.00;99.90
29713;DHT22;16623;53.632;10.016;2023-11-19T02:30:46;6.00;99.90
29713;DHT22;16623;53.632;10.016;2023-11-19T02:33:11;6.00;99.90
29713;DHT22;16623;53.632;10.016;2023-11-19T02:35:38;6.00;99.90
29713;DHT22;16623;53.632;10.016;2023-11-19T02:38:06;6.10;99.90
29713;DHT22;16623;53.632;10.016;2023-11-19T02:40:32;6.00;99.90
29713;DHT22;16623;53.632;10.016;2023-11-19T02:42:57;6.10;99.90
29713;DHT22;16623;53.632;10.016;2023-11-19T02:45:24;6.00;99.90
29713;DHT22;16623;53.632;10.016;2023-11-19T02:47:51;6.10;99.90
29713;DHT22;16623;53.632;10.016;2023-11-19T02:50:18;6.00;99.90
29713;DHT22;16623;53.632;10.016;2023-11-19T02:52:51;6.10;99.90
29713;DHT22;16623;53.632;10.016;2023-11-19T02:55:17;6.10;99.90
29713;DHT22;16623;53.632;10.016;2023-11-19T02:57:43;6.20;99.90
29713;DHT22;16623;53.632;10.016;2023-11-19T03:00:21;6.10;99.90
29713;DHT22;16623;53.632;10.016;2023-11-19T03:02:51;6.10;99.90
29713;DHT22;16623;53.632;10.016;2023-11-19T03:05:26;6.20;99.90
29713;DHT22;16623;53.632;10.016;2023-11-19T03:07:52;6.20;99.90
29713;DHT22;16623;53.632;10.016;2023-11-19T03:10:17;6.10;99.90
29713;DHT22;16623;53.632;10.016;2023-11-19T03:12:44;6.10;99.90
29713;DHT22;16623;53.632;10.016;2023-11-19T03:15:11;6.10;99.90
29713;DHT22;16623;53.632;10.016;2023-11-19T03:17:39;6.20;99.90
29713;DHT22;16623;53.632;10.016;2023-11-19T03:20:06;6.20;99.90
29713;DHT22;16623;53.632;10.016;2023-11-19T03:22:36;6.20;99.90
29713;DHT22;16623;53.632;10.016;2023-11-19T03:25:01;6.20;99.90
29713;DHT22;16623;53.632;10.016;2023-11-19T03:27:27;6.30;99.90
29713;DHT22;16623;53.632;10.016;2023-11-19T03:32:18;6.30;99.90
29713;DHT22;16623;53.632;10.016;2023-11-19T03:34:45;6.30;99.90
29713;DHT22;16623;53.632;10.016;2023-11-19T03:37:10;6.40;99.90
29713;DHT22;16623;53.632;10.016;2023-11-19T03:39:36;6.40;99.90
29713;DHT22;16623;53.632;10.016;2023-11-19T03:42:02;6.40;99.90
29713;DHT22;16623;53.632;10.016;2023-11-19T03:44:29;6.40;99.90
29713;DHT22;16623;53.632;10.016;2023-11-19T03:46:54;6.30;99.90
29713;DHT22;16623;53.632;10.016;2023-11-19T03:52:42;6.50;99.90
29713;DHT22;16623;53.632;10.016;2023-11-19T03:55:08;6.50;99.90
29713;DHT22;16623;53.632;10.016;2023-11-19T03:57:35;6.50;99.90
29713;DHT22;16623;53.632;10.016;2023-11-19T04:00:01;6.60;99.90
29713;DHT22;16623;53.632;10.016;2023-11-19T04:02:33;6.70;99.90
29713;DHT22;16623;53.632;10.016;2023-11-19T04:04:59;6.70;99.90
29713;DHT22;16623;53.632;10.016;2023-11-19T04:07:24;6.70;99.90
29713;DHT22;16623;53.632;10.016;2023-11-19T04:09:50;6.70;99.90
29713;DHT22;16623;53.632;10.016;2023-11-19T04:12:16;6.70;99.90
29713;DHT22;16623;53.632;10.016;2023-11-19T04:14:41;6.70;99.90
29713;DHT22;16623;53.632;10.016;2023-11-19T04:17:07;6.70;99.90
29713;DHT22;16623;53.632;10.016;2023-11-19T04:19:32;6.70;99.90
29713;DHT22;16623;53.632;10.016;2023-11-19T04:21:58;6.70;99.90
29713;DHT22;16623;53.632;10.016;2023-11-19T04:24:24;6.70;99.90
29713;DHT22;16623;53.632;10.016;2023-11-19T04:26:49;6.70;99.90
29713;DHT22;16623;53.632;10.016;2023-11-19T04:29:16;6.70;99.90
29713;DHT22;16623;53.632;10.016;2023-11-19T04:31:43;6.70;99.90
29713;DHT22;16623;53.632;10.016;2023-11-19T04:34:09;6.70;99.90
29713;DHT22;16623;53.632;10.016;2023-11-19T04:36:35;6.70;99.90
29713;DHT22;16623;53.632;10.016;2023-11-19T04:39:02;6.80;99.90
29713;DHT22;16623;53.632;10.016;2023-11-19T04:41:30;6.80;99.90
29713;DHT22;16623;53.632;10.016;2023-11-19T04:43:57;6.90;99.90
29713;DHT22;16623;53.632;10.016;2023-11-19T04:46:22;6.90;99.90
29713;DHT22;16623;53.632;10.016;2023-11-19T04:48:49;6.90;99.90
29713;DHT22;16623;53.632;10.016;2023-11-19T04:51:15;6.90;99.90
29713;DHT22;16623;53.632;10.016;2023-11-19T04:53:41;6.90;99.90
29713;DHT22;16623;53.632;10.016;2023-11-19T04:56:12;6.90;99.90
29713;DHT22;16623;53.632;10.016;2023-11-19T04:58:38;7.00;99.90
29713;DHT22;16623;53.632;10.016;2023-11-19T05:01:04;7.00;99.90
29713;DHT22;16623;53.632;10.016;2023-11-19T05:03:33;7.00;99.90
29713;DHT22;16623;53.632;10.016;2023-11-19T05:05:59;7.00;99.90
29713;DHT22;16623;53.632;10.016;2023-11-19T05:08:24;7.10;99.90
29713;DHT22;16623;53.632;10.016;2023-11-19T05:10:50;7.00;99.90
29713;DHT22;16623;53.632;10.016;2023-11-19T05:13:16;7.10;99.90
29713;DHT22;16623;53.632;10.016;2023-11-19T05:15:42;7.10;99.90
29713;DHT22;16623;53.632;10.016;2023-11-19T05:18:07;7.20;99.90
29713;DHT22;16623;53.632;10.016;2023-11-19T05:20:34;7.20;99.90
29713;DHT22;16623;53.632;10.016;2023-11-19T05:25:26;7.30;99.90
29713;DHT22;16623;53.632;10.016;2023-11-19T05:27:52;7.40;99.90
29713;DHT22;16623;53.632;10.016;2023-11-19T05:30:18;7.40;99.90
29713;DHT22;16623;53.632;10.016;2023-11-19T05:32:43;7.30;99.90
29713;DHT22;16623;53.632;10.016;2023-11-19T05:35:09;7.40;99.90
29713;DHT22;16623;53.632;10.016;2023-11-19T05:37:35;7.50;99.90
29713;DHT22;16623;53.632;10.016;2023-11-19T05:40:01;7.50;99.90
29713;DHT22;16623;53.632;10.016;2023-11-19T05:42:29;7.60;99.90
29713;DHT22;16623;53.632;10.016;2023-11-19T05:44:54;7.60;99.90
29713;DHT22;16623;53.632;10.016;2023-11-19T05:47:20;7.70;99.90
29713;DHT22;16623;53.632;10.016;2023-11-19T05:49:45;7.80;99.90
29713;DHT22;16623;53.632;10.016;2023-11-19T05:52:11;7.90;99.90
29713;DHT22;16623;53.632;10.016;2023-11-19T05:54:37;8.00;99.90
29713;DHT22;16623;53.632;10.016;2023-11-19T05:57:07;10.00;99.90
29713;DHT22;16623;53.632;10.016;2023-11-19T05:59:36;8.00;99.90
29713;DHT22;16623;53.632;10.016;2023-11-19T06:02:02;8.00;99.90
29713;DHT22;16623;53.632;10.016;2023-11-19T06:04:28;8.10;99.90
29713;DHT22;16623;53.632;10.016;2023-11-19T06:06:54;8.20;99.90
29713;DHT22;16623;53.632;10.016;2023-11-19T06:09:23;8.30;99.90
29713;DHT22;16623;53.632;10.016;2023-11-19T06:11:52;8.50;99.90
29713;DHT22;16623;53.632;10.016;2023-11-19T06:14:18;8.60;99.90
29713;DHT22;16623;53.632;10.016;2023-11-19T06:16:44;8.60;99.90
29713;DHT22;16623;53.632;10.016;2023-11-19T06:19:10;8.70;99.90
29713;DHT22;16623;53.632;10.016;2023-11-19T06:21:37;8.70;99.90
29713;DHT22;16623;53.632;10.016;2023-11-19T06:24:02;8.90;99.90
29713;DHT22;16623;53.632;10.016;2023-11-19T06:26:28;9.00;99.90
29713;DHT22;16623;53.632;10.016;2023-11-19T06:28:54;9.10;99.90
29713;DHT22;16623;53.632;10.016;2023-11-19T06:31:23;9.20;99.90
29713;DHT22;16623;53.632;10.016;2023-11-19T06:33:48;9.30;99.90
29713;DHT22;16623;53.632;10.016;2023-11-19T06:36:14;9.40;99.90
29713;DHT22;16623;53.632;10.016;2023-11-19T06:38:42;9.50;99.90
29713;DHT22;16623;53.632;10.016;2023-11-19T06:41:08;9.60;99.90
29713;DHT22;16623;53.632;10.016;2023-11-19T06:43:34;9.70;99.90
29713;DHT22;16623;53.632;10.016;2023-11-19T06:46:01;9.80;99.90
29713;DHT22;16623;53.632;10.016;2023-11-19T06:48:27;9.80;99.90
29713;DHT22;16623;53.632;10.016;2023-11-19T06:50:52;9.90;99.90
29713;DHT22;16623;53.632;10.016;2023-11-19T06:53:19;9.90;99.90
29713;DHT22;16623;53.632;10.016;2023-11-19T06:55:44;10.00;99.90
29713;DHT22;16623;53.632;10.016;2023-11-19T06:58:11;10.10;99.90
29713;DHT22;16623;53.632;10.016;2023-11-19T07:00:37;10.10;99.90
29713;DHT22;16623;53.632;10.016;2023-11-19T07:03:03;10.20;99.90
29713;DHT22;16623;53.632;10.016;2023-11-19T07:05:29;10.40;99.90
29713;DHT22;16623;53.632;10.016;2023-11-19T07:07:55;10.40;99.90
29713;DHT22;16623;53.632;10.016;2023-11-19T07:10:21;10.40;99.90
29713;DHT22;16623;53.632;10.016;2023-11-19T07:12:47;10.50;99.90
29713;DHT22;16623;53.632;10.016;2023-11-19T07:15:13;10.50;99.90
29713;DHT22;16623;53.632;10.016;2023-11-19T07:17:39;10.60;99.90
29713;DHT22;16623;53.632;10.016;2023-11-19T07:20:05;10.60;99.90
29713;DHT22;16623;53.632;10.016;2023-11-19T07:22:31;10.60;99.90
29713;DHT22;16623;53.632;10.016;2023-11-19T07:24:57;10.70;99.90
29713;DHT22;16623;53.632;10.016;2023-11-19T07:27:24;10.60;99.90
29713;DHT22;16623;53.632;10.016;2023-11-19T07:29:49;10.70;99.90
29713;DHT22;16623;53.632;10.016;2023-11-19T07:32:15;10.70;99.90
29713;DHT22;16623;53.632;10.016;2023-11-19T07:34:41;10.70;99.90
29713;DHT22;16623;53.632;10.016;2023-11-19T07:37:06;10.70;99.90
29713;DHT22;16623;53.632;10.016;2023-11-19T07:39:32;10.70;99.90
29713;DHT22;16623;53.632;10.016;2023-11-19T07:41:58;10.80;99.90
29713;DHT22;16623;53.632;10.016;2023-11-19T07:44:23;10.70;99.90
29713;DHT22;16623;53.632;10.016;2023-11-19T07:46:50;10.80;99.90
29713;DHT22;16623;53.632;10.016;2023-11-19T07:49:15;10.80;99.90
29713;DHT22;16623;53.632;10.016;2023-11-19T07:51:41;10.80;99.90
29713;DHT22;16623;53.632;10.016;2023-11-19T07:54:07;10.90;99.90
29713;DHT22;16623;53.632;10.016;2023-11-19T07:56:33;10.90;99.90
29713;DHT22;16623;53.632;10.016;2023-11-19T07:59:02;10.90;99.90
29713;DHT22;16623;53.632;10.016;2023-11-19T08:01:28;11.00;99.90
29713;DHT22;16623;53.632;10.016;2023-11-19T08:03:54;11.00;99.90
29713;DHT22;16623;53.632;10.016;2023-11-19T08:06:19;11.10;99.90
29713;DHT22;16623;53.632;10.016;2023-11-19T08:08:45;13.20;99.90
29713;DHT22;16623;53.632;10.016;2023-11-19T08:11:13;11.10;99.90
29713;DHT22;16623;53.632;10.016;2023-11-19T08:13:39;11.10;99.90
29713;DHT22;16623;53.632;10.016;2023-11-19T08:16:05;11.10;99.90
29713;DHT22;16623;53.632;10.016;2023-11-19T08:18:31;11.10;99.90
29713;DHT22;16623;53.632;10.016;2023-11-19T08:20:57;11.10;99.90
29713;DHT22;16623;53.632;10.016;2023-11-19T08:23:24;11.10;99.90
29713;DHT22;16623;53.632;10.016;2023-11-19T08:25:51;11.20;99.90
29713;DHT22;16623;53.632;10.016;2023-11-19T08:28:16;11.20;99.90
29713;DHT22;16623;53.632;10.016;2023-11-19T08:30:42;11.30;99.90
29713;DHT22;16623;53.632;10.016;2023-11-19T08:35:35;11.30;99.90
29713;DHT22;16623;53.632;10.016;2023-11-19T08:38:01;11.30;99.90
29713;DHT22;16623;53.632;10.016;2023-11-19T08:40:28;11.40;99.90
29713;DHT22;16623;53.632;10.016;2023-11-19T08:42:54;11.40;99.90
29713;DHT22;16623;53.632;10.016;2023-11-19T08:45:19;11.40;99.90
29713;DHT22;16623;53.632;10.016;2023-11-19T08:47:45;11.40;99.90
29713;DHT22;16623;53.632;10.016;2023-11-19T08:50:11;11.40;99.90
29713;DHT22;16623;53.632;10.016;2023-11-19T08:52:40;11.40;99.90
29713;DHT22;16623;53.632;10.016;2023-11-19T08:55:06;11.40;99.90
29713;DHT22;16623;53.632;10.016;2023-11-19T08:57:32;11.40;99.90
29713;DHT22;16623;53.632;10.016;2023-11-19T09:00:01;11.40;99.90
29713;DHT22;16623;53.632;10.016;2023-11-19T09:02:26;11.50;99.90
29713;DHT22;16623;53.632;10.016;2023-11-19T09:04:52;11.50;99.90
29713;DHT22;16623;53.632;10.016;2023-11-19T09:07:17;11.50;99.90
29713;DHT22;16623;53.632;10.016;2023-11-19T09:09:43;11.60;99.90
29713;DHT22;16623;53.632;10.016;2023-11-19T09:12:09;11.50;99.90
29713;DHT22;16623;53.632;10.016;2023-11-19T09:14:34;11.50;99.90
29713;DHT22;16623;53.632;10.016;2023-11-19T09:17:00;11.60;99.90
29713;DHT22;16623;53.632;10.016;2023-11-19T09:19:26;11.90;99.90
29713;DHT22;16623;53.632;10.016;2023-11-19T09:21:52;11.50;99.90
29713;DHT22;16623;53.632;10.016;2023-11-19T09:24:18;11.50;99.90
29713;DHT22;16623;53.632;10.016;2023-11-19T09:26:43;11.50;99.90
29713;DHT22;16623;53.632;10.016;2023-11-19T09:29:10;11.60;99.90
29713;DHT22;16623;53.632;10.016;2023-11-19T09:31:37;11.70;99.90
29713;DHT22;16623;53.632;10.016;2023-11-19T09:34:03;11.70;99.90
29713;DHT22;16623;53.632;10.016;2023-11-19T09:36:29;11.70;99.90
29713;DHT22;16623;53.632;10.016;2023-11-19T09:38:54;11.80;99.90
29713;DHT22;16623;53.632;10.016;2023-11-19T09:41:20;11.80;99.90
29713;DHT22;16623;53.632;10.016;2023-11-19T09:43:45;11.90;99.90
29713;DHT22;16623;53.632;10.016;2023-11-19T09:46:13;11.90;99.90
29713;DHT22;16623;53.632;10.016;2023-11-19T09:48:40;11.90;99.90
29713;DHT22;16623;53.632;10.016;2023-11-19T09:51:08;12.00;99.90
29713;DHT22;16623;53.632;10.016;2023-11-19T09:53:35;12.00;99.90
29713;DHT22;16623;53.632;10.016;2023-11-19T09:56:02;12.10;99.90
29713;DHT22;16623;53.632;10.016;2023-11-19T09:58:32;12.10;99.90
29713;DHT22;16623;53.632;10.016;2023-11-19T10:01:01;12.20;99.90
29713;DHT22;16623;53.632;10.016;2023-11-19T10:03:36;12.20;99.90
29713;DHT22;16623;53.632;10.016;2023-11-19T10:06:08;12.30;99.90
29713;DHT22;16623;53.632;10.016;2023-11-19T10:08:37;12.30;99.90
29713;DHT22;16623;53.632;10.016;2023-11-19T10:11:03;12.50;99.90
29713;DHT22;16623;53.632;10.016;2023-11-19T10:13:29;12.60;99.90
29713;DHT22;16623;53.632;10.016;2023-11-19T10:15:56;12.70;99.90
29713;DHT22;16623;53.632;10.016;2023-11-19T10:18:26;12.70;99.90
29713;DHT22;16623;53.632;10.016;2023-11-19T10:20:52;12.60;99.90
29713;DHT22;16623;53.632;10.016;2023-11-19T10:23:18;12.60;99.90
29713;DHT22;16623;53.632;10.016;2023-11-19T10:25:45;12.60;99.90
29713;DHT22;16623;53.632;10.016;2023-11-19T10:28:10;12.40;99.90
29713;DHT22;16623;53.632;10.016;2023-11-19T10:30:38;12.50;99.90
29713;DHT22;16623;53.632;10.016;2023-11-19T10:33:13;12.40;99.90
29713;DHT22;16623;53.632;10.016;2023-11-19T10:38:22;12.20;99.90
29713;DHT22;16623;53.632;10.016;2023-11-19T10:40:49;12.20;99.90
29713;DHT22;16623;53.632;10.016;2023-11-19T10:43:16;12.20;99.90
29713;DHT22;16623;53.632;10.016;2023-11-19T10:45:42;12.10;99.90
29713;DHT22;16623;53.632;10.016;2023-11-19T10:48:08;12.10;99.90
29713;DHT22;16623;53.632;10.016;2023-11-19T10:50:34;12.20;99.90
29713;DHT22;16623;53.632;10.016;2023-11-19T10:53:02;12.20;99.90
29713;DHT22;16623;53.632;10.016;2023-11-19T10:55:31;12.10;99.90
29713;DHT22;16623;53.632;10.016;2023-11-19T10:58:00;12.10;99.90
29713;DHT22;16623;53.632;10.016;2023-11-19T11:00:30;12.00;99.90
29713;DHT22;16623;53.632;10.016;2023-11-19T11:03:02;12.00;99.90
29713;DHT22;16623;53.632;10.016;2023-11-19T11:05:32;11.90;99.90
29713;DHT22;16623;53.632;10.016;2023-11-19T11:08:00;12.00;99.90
29713;DHT22;16623;53.632;10.016;2023-11-19T11:10:26;12.00;99.90
29713;DHT22;16623;53.632;10.016;2023-11-19T11:12:52;11.90;99.90
29713;DHT22;16623;53.632;10.016;2023-11-19T11:15:28;11.90;99.90
29713;DHT22;16623;53.632;10.016;2023-11-19T11:18:01;11.90;99.90
29713;DHT22;16623;53.632;10.016;2023-11-19T11:20:32;12.00;99.90
29713;DHT22;16623;53.632;10.016;2023-11-19T11:28:24;11.90;99.90
29713;DHT22;16623;53.632;10.016;2023-11-19T11:31:26;11.90;99.90
29713;DHT22;16623;53.632;10.016;2023-11-19T11:34:14;12.00;99.90
29713;DHT22;16623;53.632;10.016;2023-11-19T11:39:35;12.20;99.90
29713;DHT22;16623;53.632;10.016;2023-11-19T11:42:37;12.30;99.90
29713;DHT22;16623;53.632;10.016;2023-11-19T11:45:08;12.40;99.90
29713;DHT22;16623;53.632;10.016;2023-11-19T11:50:13;12.40;99.90
29713;DHT22;16623;53.632;10.016;2023-11-19T11:55:33;12.30;99.90
29713;DHT22;16623;53.632;10.016;2023-11-19T11:58:00;12.20;99.90
29713;DHT22;16623;53.632;10.016;2023-11-19T12:00:39;12.10;99.90
29713;DHT22;16623;53.632;10.016;2023-11-19T12:03:06;12.00;99.90
29713;DHT22;16623;53.632;10.016;2023-11-19T12:05:32;12.00;99.90
29713;DHT22;16623;53.632;10.016;2023-11-19T12:08:04;12.00;99.90
29713;DHT22;16623;53.632;10.016;2023-11-19T12:10:36;11.90;99.90
29713;DHT22;16623;53.632;10.016;2023-11-19T12:13:06;12.00;99.90
29713;DHT22;16623;53.632;10.016;2023-11-19T12:18:20;12.10;99.90
29713;DHT22;16623;53.632;10.016;2023-11-19T12:20:46;12.20;99.90
29713;DHT22;16623;53.632;10.016;2023-11-19T12:23:12;12.20;99.90
29713;DHT22;16623;53.632;10.016;2023-11-19T12:25:38;12.10;99.90
29713;DHT22;16623;53.632;10.016;2023-11-19T12:28:03;12.10;99.90
29713;DHT22;16623;53.632;10.016;2023-11-19T12:30:29;12.10;99.90
29713;DHT22;16623;53.632;10.016;2023-11-19T12:32:55;12.10;99.90
29713;DHT22;16623;53.632;10.016;2023-11-19T12:35:22;12.10;99.90
29713;DHT22;16623;53.632;10.016;2023-11-19T12:37:51;12.10;99.90
29713;DHT22;16623;53.632;10.016;2023-11-19T12:40:23;12.20;99.90
29713;DHT22;16623;53.632;10.016;2023-11-19T12:42:49;12.30;99.90
29713;DHT22;16623;53.632;10.016;2023-11-19T12:45:16;12.20;99.90
29713;DHT22;16623;53.632;10.016;2023-11-19T12:47:43;12.20;99.90
29713;DHT22;16623;53.632;10.016;2023-11-19T12:50:15;12.30;99.90
29713;DHT22;16623;53.632;10.016;2023-11-19T12:52:43;12.20;99.90
29713;DHT22;16623;53.632;10.016;2023-11-19T12:55:28;12.20;99.90
29713;DHT22;16623;53.632;10.016;2023-11-19T12:57:54;12.20;99.90
29713;DHT22;16623;53.632;10.016;2023-11-19T13:00:25;12.20;99.90
29713;DHT22;16623;53.632;10.016;2023-11-19T13:02:55;12.20;99.90
29713;DHT22;16623;53.632;10.016;2023-11-19T13:05:32;12.20;99.90
29713;DHT22;16623;53.632;10.016;2023-11-19T13:08:06;12.20;99.90
29713;DHT22;16623;53.632;10.016;2023-11-19T13:13:14;12.10;99.90
29713;DHT22;16623;53.632;10.016;2023-11-19T13:15:39;12.20;99.90
29713;DHT22;16623;53.632;10.016;2023-11-19T13:18:05;12.10;99.90
29713;DHT22;16623;53.632;10.016;2023-11-19T13:20:32;12.10;99.90
29713;DHT22;16623;53.632;10.016;2023-11-19T13:22:59;12.10;99.90
29713;DHT22;16623;53.632;10.016;2023-11-19T13:25:26;12.10;99.90
29713;DHT22;16623;53.632;10.016;2023-11-19T13:27:53;12.10;99.90
29713;DHT22;16623;53.632;10.016;2023-11-19T13:30:18;12.10;99.90
29713;DHT22;16623;53.632;10.016;2023-11-19T13:32:44;12.10;99.90
29713;DHT22;16623;53.632;10.016;2023-11-19T13:35:14;12.10;99.90
29713;DHT22;16623;53.632;10.016;2023-11-19T13:37:44;12.10;99.90
29713;DHT22;16623;53.632;10.016;2023-11-19T13:40:11;12.10;99.90
29713;DHT22;16623;53.632;10.016;2023-11-19T13:42:39;12.10;99.90
29713;DHT22;16623;53.632;10.016;2023-11-19T13:45:11;12.10;99.90
29713;DHT22;16623;53.632;10.016;2023-11-19T13:47:45;12.10;99.90
29713;DHT22;16623;53.632;10.016;2023-11-19T13:50:13;12.10;99.90
29713;DHT22;16623;53.632;10.016;2023-11-19T13:52:41;12.10;99.90
29713;DHT22;16623;53.632;10.016;2023-11-19T13:55:08;12.00;99.90
29713;DHT22;16623;53.632;10.016;2023-11-19T13:57:35;12.00;99.90
29713;DHT22;16623;53.632;10.016;2023-11-19T14:00:02;12.00;99.90
29713;DHT22;16623;53.632;10.016;2023-11-19T14:02:31;12.00;99.90
29713;DHT22;16623;53.632;10.016;2023-11-19T14:04:57;12.00;99.90
29713;DHT22;16623;53.632;10.016;2023-11-19T14:07:23;12.00;99.90
29713;DHT22;16623;53.632;10.016;2023-11-19T14:09:48;12.00;99.90
29713;DHT22;16623;53.632;10.016;2023-11-19T14:12:14;12.00;99.90
29713;DHT22;16623;53.632;10.016;2023-11-19T14:14:39;12.00;99.90
29713;DHT22;16623;53.632;10.016;2023-11-19T14:17:05;12.00;99.90
29713;DHT22;16623;53.632;10.016;2023-11-19T14:19:30;12.00;99.90
29713;DHT22;16623;53.632;10.016;2023-11-19T14:21:56;12.00;99.90
29713;DHT22;16623;53.632;10.016;2023-11-19T14:24:21;12.10;99.90
29713;DHT22;16623;53.632;10.016;2023-11-19T14:26:47;11.90;99.90
29713;DHT22;16623;53.632;10.016;2023-11-19T14:29:15;11.90;99.90
29713;DHT22;16623;53.632;10.016;2023-11-19T14:31:40;12.00;99.90
29713;DHT22;16623;53.632;10.016;2023-11-19T14:34:06;11.90;99.90
29713;DHT22;16623;53.632;10.016;2023-11-19T14:36:32;11.90;99.90
29713;DHT22;16623;53.632;10.016;2023-11-19T14:38:57;11.80;99.90
29713;DHT22;16623;53.632;10.016;2023-11-19T14:41:24;11.80;99.90
29713;DHT22;16623;53.632;10.016;2023-11-19T14:43:50;11.70;99.90
29713;DHT22;16623;53.632;10.016;2023-11-19T14:46:15;11.70;99.90
29713;DHT22;16623;53.632;10.016;2023-11-19T14:48:41;11.50;99.90
29713;DHT22;16623;53.632;10.016;2023-11-19T14:51:07;11.40;99.90
29713;DHT22;16623;53.632;10.016;2023-11-19T14:53:32;11.30;99.90
29713;DHT22;16623;53.632;10.016;2023-11-19T14:55:58;11.20;99.90
29713;DHT22;16623;53.632;10.016;2023-11-19T14:58:23;11.10;99.90
29713;DHT22;16623;53.632;10.016;2023-11-19T15:00:51;11.00;99.90
29713;DHT22;16623;53.632;10.016;2023-11-19T15:03:17;10.90;99.90
29713;DHT22;16623;53.632;10.016;2023-11-19T15:05:45;10.80;99.90
29713;DHT22;16623;53.632;10.016;2023-11-19T15:08:11;10.80;99.90
29713;DHT22;16623;53.632;10.016;2023-11-19T15:10:37;10.80;99.90
29713;DHT22;16623;53.632;10.016;2023-11-19T15:13:03;10.70;99.90
29713;DHT22;16623;53.632;10.016;2023-11-19T15:15:29;10.70;99.90
29713;DHT22;16623;53.632;10.016;2023-11-19T15:17:55;10.60;99.90
29713;DHT22;16623;53.632;10.016;2023-11-19T15:20:20;10.60;99.90
29713;DHT22;16623;53.632;10.016;2023-11-19T15:22:46;10.60;99.90
29713;DHT22;16623;53.632;10.016;2023-11-19T15:25:13;10.60;99.90
29713;DHT22;16623;53.632;10.016;2023-11-19T15:27:38;10.50;99.90
29713;DHT22;16623;53.632;10.016;2023-11-19T15:30:04;10.30;99.90
29713;DHT22;16623;53.632;10.016;2023-11-19T15:32:30;10.40;99.90
29713;DHT22;16623;53.632;10.016;2023-11-19T15:34:57;10.40;99.90
29713;DHT22;16623;53.632;10.016;2023-11-19T15:37:23;10.40;99.90
29713;DHT22;16623;53.632;10.016;2023-11-19T15:39:49;10.40;99.90
29713;DHT22;16623;53.632;10.016;2023-11-19T15:42:17;10.40;99.90
29713;DHT22;16623;53.632;10.016;2023-11-19T15:44:43;10.30;99.90
29713;DHT22;16623;53.632;10.016;2023-11-19T15:47:09;10.40;99.90
29713;DHT22;16623;53.632;10.016;2023-11-19T15:49:35;10.40;99.90
29713;DHT22;16623;53.632;10.016;2023-11-19T15:52:02;10.30;99.90
29713;DHT22;16623;53.632;10.016;2023-11-19T15:54:28;10.40;99.90
29713;DHT22;16623;53.632;10.016;2023-11-19T15:56:53;10.40;99.90